sensor_id;sensor_type;location;lat;lon;timestamp;P1;durP1;ratioP1;P2;durP2;ratioP2
30743;SDS011;17486;46.738;7.622;2022-12-29T00:02:19;2.40;;;1.88;;
30743;SDS011;17486;46.738;7.622;2022-12-29T00:04:44;2.10;;;1.20;;
30743;SDS011;17486;46.738;7.622;2022-12-29T00:07:10;2.10;;;1.48;;
30743;SDS011;17486;46.738;7.622;2022-12-29T00:09:36;1.40;;;1.13;;
30743;SDS011;17486;46.738;7.622;2022-12-29T00:12:02;1.85;;;1.17;;
30743;SDS011;17486;46.738;7.622;2022-12-29T00:14:29;2.33;;;1.10;;
30743;SDS011;17486;46.738;7.622;2022-12-29T00:17:13;1.45;;;1.10;;
30743;SDS011;17486;46.738;7.622;2022-12-29T00:19:38;2.00;;;1.05;;
30743;SDS011;17486;46.738;7.622;2022-12-29T00:22:23;1.73;;;1.13;;
30743;SDS011;17486;46.738;7.622;2022-12-29T00:25:08;3.53;;;1.40;;
30743;SDS011;17486;46.738;7.622;2022-12-29T00:27:53;1.73;;;1.50;;
30743;SDS011;17486;46.738;7.622;2022-12-29T00:30:37;3.65;;;1.55;;
30743;SDS011;17486;46.738;7.622;2022-12-29T00:33:22;2.53;;;1.48;;
30743;SDS011;17486;46.738;7.622;2022-12-29T00:36:17;2.92;;;1.50;;
30743;SDS011;17486;46.738;7.622;2022-12-29T00:42:03;2.53;;;1.38;;
30743;SDS011;17486;46.738;7.622;2022-12-29T00:45:04;2.25;;;1.42;;
30743;SDS011;17486;46.738;7.622;2022-12-29T00:47:30;1.75;;;1.40;;
30743;SDS011;17486;46.738;7.622;2022-12-29T00:49:56;2.75;;;1.48;;
30743;SDS011;17486;46.738;7.622;2022-12-29T00:52:21;3.75;;;1.50;;
30743;SDS011;17486;46.738;7.622;2022-12-29T00:54:46;2.95;;;1.77;;
30743;SDS011;17486;46.738;7.622;2022-12-29T00:57:12;3.30;;;1.30;;
30743;SDS011;17486;46.738;7.622;2022-12-29T00:59:38;2.05;;;1.60;;
30743;SDS011;17486;46.738;7.622;2022-12-29T01:02:05;1.63;;;1.30;;
30743;SDS011;17486;46.738;7.622;2022-12-29T01:04:31;3.30;;;1.40;;
30743;SDS011;17486;46.738;7.622;2022-12-29T01:06:56;3.03;;;1.67;;
30743;SDS011;17486;46.738;7.622;2022-12-29T01:09:22;4.18;;;1.48;;
30743;SDS011;17486;46.738;7.622;2022-12-29T01:12:07;2.35;;;1.55;;
30743;SDS011;17486;46.738;7.622;2022-12-29T01:14:33;2.47;;;1.77;;
30743;SDS011;17486;46.738;7.622;2022-12-29T01:16:59;2.42;;;1.70;;
30743;SDS011;17486;46.738;7.622;2022-12-29T01:19:25;2.67;;;1.70;;
30743;SDS011;17486;46.738;7.622;2022-12-29T01:21:50;4.03;;;2.10;;
30743;SDS011;17486;46.738;7.622;2022-12-29T01:24:16;3.10;;;1.85;;
30743;SDS011;17486;46.738;7.622;2022-12-29T01:26:42;2.42;;;1.88;;
30743;SDS011;17486;46.738;7.622;2022-12-29T01:29:08;3.42;;;2.13;;
30743;SDS011;17486;46.738;7.622;2022-12-29T01:31:33;3.95;;;2.00;;
30743;SDS011;17486;46.738;7.622;2022-12-29T01:34:00;3.20;;;2.15;;
30743;SDS011;17486;46.738;7.622;2022-12-29T01:36:26;3.70;;;2.05;;
30743;SDS011;17486;46.738;7.622;2022-12-29T01:38:51;3.13;;;2.10;;
30743;SDS011;17486;46.738;7.622;2022-12-29T01:41:17;3.72;;;2.20;;
30743;SDS011;17486;46.738;7.622;2022-12-29T01:49:12;3.20;;;2.63;;
30743;SDS011;17486;46.738;7.622;2022-12-29T01:51:48;2.80;;;2.08;;
30743;SDS011;17486;46.738;7.622;2022-12-29T01:54:26;4.28;;;2.10;;
30743;SDS011;17486;46.738;7.622;2022-12-29T01:57:08;3.17;;;1.88;;
30743;SDS011;17486;46.738;7.622;2022-12-29T01:59:43;5.95;;;1.73;;
30743;SDS011;17486;46.738;7.622;2022-12-29T02:02:18;1.90;;;1.70;;
30743;SDS011;17486;46.738;7.622;2022-12-29T02:04:43;2.75;;;2.05;;
30743;SDS011;17486;46.738;7.622;2022-12-29T02:07:10;3.08;;;1.63;;
30743;SDS011;17486;46.738;7.622;2022-12-29T02:09:42;2.72;;;1.70;;
30743;SDS011;17486;46.738;7.622;2022-12-29T02:12:07;2.30;;;1.80;;
30743;SDS011;17486;46.738;7.622;2022-12-29T02:14:33;3.28;;;1.95;;
30743;SDS011;17486;46.738;7.622;2022-12-29T02:23:05;2.92;;;1.88;;
30743;SDS011;17486;46.738;7.622;2022-12-29T02:31:35;4.75;;;2.38;;
30743;SDS011;17486;46.738;7.622;2022-12-29T02:45:56;3.70;;;2.20;;
30743;SDS011;17486;46.738;7.622;2022-12-29T02:51:04;2.85;;;2.15;;
30743;SDS011;17486;46.738;7.622;2022-12-29T02:53:40;3.40;;;2.22;;
30743;SDS011;17486;46.738;7.622;2022-12-29T02:56:24;3.45;;;2.28;;
30743;SDS011;17486;46.738;7.622;2022-12-29T02:58:49;2.25;;;2.03;;
30743;SDS011;17486;46.738;7.622;2022-12-29T03:01:37;2.60;;;2.13;;
30743;SDS011;17486;46.738;7.622;2022-12-29T03:10:01;2.58;;;2.03;;
30743;SDS011;17486;46.738;7.622;2022-12-29T03:12:46;5.15;;;2.20;;
30743;SDS011;17486;46.738;7.622;2022-12-29T03:15:39;3.25;;;2.30;;
30743;SDS011;17486;46.738;7.622;2022-12-29T03:21:32;2.30;;;1.77;;
30743;SDS011;17486;46.738;7.622;2022-12-29T03:24:28;5.10;;;2.20;;
30743;SDS011;17486;46.738;7.622;2022-12-29T03:26:58;3.92;;;2.20;;
30743;SDS011;17486;46.738;7.622;2022-12-29T03:29:26;4.97;;;2.08;;
30743;SDS011;17486;46.738;7.622;2022-12-29T03:31:54;2.75;;;1.88;;
30743;SDS011;17486;46.738;7.622;2022-12-29T03:34:21;2.65;;;2.00;;
30743;SDS011;17486;46.738;7.622;2022-12-29T03:36:53;2.25;;;1.73;;
30743;SDS011;17486;46.738;7.622;2022-12-29T03:39:24;3.10;;;2.00;;
30743;SDS011;17486;46.738;7.622;2022-12-29T03:41:51;5.57;;;2.00;;
30743;SDS011;17486;46.738;7.622;2022-12-29T03:44:31;2.40;;;1.90;;
30743;SDS011;17486;46.738;7.622;2022-12-29T03:46:58;2.42;;;2.20;;
30743;SDS011;17486;46.738;7.622;2022-12-29T03:49:23;3.63;;;2.50;;
30743;SDS011;17486;46.738;7.622;2022-12-29T03:51:48;4.47;;;2.17;;
30743;SDS011;17486;46.738;7.622;2022-12-29T03:54:14;4.15;;;2.08;;
30743;SDS011;17486;46.738;7.622;2022-12-29T03:56:39;3.45;;;2.35;;
30743;SDS011;17486;46.738;7.622;2022-12-29T03:59:05;3.20;;;1.92;;
30743;SDS011;17486;46.738;7.622;2022-12-29T04:01:30;3.15;;;2.15;;
30743;SDS011;17486;46.738;7.622;2022-12-29T04:03:55;3.97;;;2.00;;
30743;SDS011;17486;46.738;7.622;2022-12-29T04:06:21;4.72;;;2.33;;
30743;SDS011;17486;46.738;7.622;2022-12-29T04:08:46;2.70;;;2.50;;
30743;SDS011;17486;46.738;7.622;2022-12-29T04:11:11;3.67;;;2.50;;
30743;SDS011;17486;46.738;7.622;2022-12-29T04:13:37;3.83;;;2.42;;
30743;SDS011;17486;46.738;7.622;2022-12-29T04:16:05;2.45;;;1.92;;
30743;SDS011;17486;46.738;7.622;2022-12-29T04:18:31;2.58;;;1.90;;
30743;SDS011;17486;46.738;7.622;2022-12-29T04:20:57;3.90;;;2.50;;
30743;SDS011;17486;46.738;7.622;2022-12-29T04:23:25;2.10;;;1.90;;
30743;SDS011;17486;46.738;7.622;2022-12-29T04:25:52;2.72;;;2.30;;
30743;SDS011;17486;46.738;7.622;2022-12-29T04:28:17;2.67;;;2.13;;
30743;SDS011;17486;46.738;7.622;2022-12-29T04:30:43;3.33;;;2.45;;
30743;SDS011;17486;46.738;7.622;2022-12-29T04:33:09;2.50;;;2.20;;
30743;SDS011;17486;46.738;7.622;2022-12-29T04:35:34;2.47;;;2.20;;
30743;SDS011;17486;46.738;7.622;2022-12-29T04:38:00;5.43;;;2.30;;
30743;SDS011;17486;46.738;7.622;2022-12-29T04:40:26;2.80;;;2.00;;
30743;SDS011;17486;46.738;7.622;2022-12-29T04:42:51;3.00;;;2.35;;
30743;SDS011;17486;46.738;7.622;2022-12-29T04:45:17;2.63;;;2.10;;
30743;SDS011;17486;46.738;7.622;2022-12-29T04:47:42;3.05;;;1.90;;
30743;SDS011;17486;46.738;7.622;2022-12-29T04:50:08;2.67;;;2.10;;
30743;SDS011;17486;46.738;7.622;2022-12-29T04:52:34;2.30;;;1.92;;
30743;SDS011;17486;46.738;7.622;2022-12-29T04:54:59;4.07;;;1.80;;
30743;SDS011;17486;46.738;7.622;2022-12-29T04:57:25;3.58;;;1.80;;
30743;SDS011;17486;46.738;7.622;2022-12-29T04:59:51;2.67;;;1.67;;
30743;SDS011;17486;46.738;7.622;2022-12-29T05:02:16;3.20;;;1.70;;
30743;SDS011;17486;46.738;7.622;2022-12-29T05:04:42;3.22;;;1.77;;
30743;SDS011;17486;46.738;7.622;2022-12-29T05:07:07;4.30;;;1.83;;
30743;SDS011;17486;46.738;7.622;2022-12-29T05:09:33;2.05;;;1.60;;
30743;SDS011;17486;46.738;7.622;2022-12-29T05:11:58;2.50;;;1.70;;
30743;SDS011;17486;46.738;7.622;2022-12-29T05:14:24;2.30;;;1.92;;
30743;SDS011;17486;46.738;7.622;2022-12-29T05:16:50;3.35;;;1.85;;
30743;SDS011;17486;46.738;7.622;2022-12-29T05:19:15;2.78;;;2.00;;
30743;SDS011;17486;46.738;7.622;2022-12-29T05:21:41;1.73;;;1.58;;
30743;SDS011;17486;46.738;7.622;2022-12-29T05:24:07;2.50;;;2.10;;
30743;SDS011;17486;46.738;7.622;2022-12-29T05:26:32;2.40;;;2.00;;
30743;SDS011;17486;46.738;7.622;2022-12-29T05:28:58;2.53;;;1.95;;
30743;SDS011;17486;46.738;7.622;2022-12-29T05:31:24;2.17;;;1.70;;
30743;SDS011;17486;46.738;7.622;2022-12-29T05:33:50;2.83;;;2.17;;
30743;SDS011;17486;46.738;7.622;2022-12-29T05:36:15;3.15;;;2.10;;
30743;SDS011;17486;46.738;7.622;2022-12-29T05:38:41;2.13;;;1.83;;
30743;SDS011;17486;46.738;7.622;2022-12-29T05:41:06;2.72;;;1.90;;
30743;SDS011;17486;46.738;7.622;2022-12-29T05:43:31;3.13;;;2.28;;
30743;SDS011;17486;46.738;7.622;2022-12-29T05:45:57;2.53;;;2.10;;
30743;SDS011;17486;46.738;7.622;2022-12-29T05:48:22;2.70;;;2.05;;
30743;SDS011;17486;46.738;7.622;2022-12-29T05:50:48;3.50;;;2.30;;
30743;SDS011;17486;46.738;7.622;2022-12-29T05:53:15;3.42;;;2.00;;
30743;SDS011;17486;46.738;7.622;2022-12-29T05:55:40;2.53;;;2.20;;
30743;SDS011;17486;46.738;7.622;2022-12-29T05:58:06;3.45;;;2.28;;
30743;SDS011;17486;46.738;7.622;2022-12-29T06:00:31;4.03;;;2.65;;
30743;SDS011;17486;46.738;7.622;2022-12-29T06:02:57;3.38;;;2.30;;
30743;SDS011;17486;46.738;7.622;2022-12-29T06:05:22;3.90;;;2.42;;
30743;SDS011;17486;46.738;7.622;2022-12-29T06:07:47;3.95;;;2.70;;
30743;SDS011;17486;46.738;7.622;2022-12-29T06:10:13;3.80;;;2.95;;
30743;SDS011;17486;46.738;7.622;2022-12-29T06:12:38;4.78;;;3.40;;
30743;SDS011;17486;46.738;7.622;2022-12-29T06:15:04;7.20;;;3.60;;
30743;SDS011;17486;46.738;7.622;2022-12-29T06:17:30;5.30;;;3.00;;
30743;SDS011;17486;46.738;7.622;2022-12-29T06:19:55;5.00;;;2.88;;
30743;SDS011;17486;46.738;7.622;2022-12-29T06:22:21;4.88;;;3.40;;
30743;SDS011;17486;46.738;7.622;2022-12-29T06:24:46;5.68;;;2.80;;
30743;SDS011;17486;46.738;7.622;2022-12-29T06:27:11;5.18;;;3.00;;
30743;SDS011;17486;46.738;7.622;2022-12-29T06:29:38;4.00;;;2.20;;
30743;SDS011;17486;46.738;7.622;2022-12-29T06:32:05;4.70;;;2.58;;
30743;SDS011;17486;46.738;7.622;2022-12-29T06:34:31;3.50;;;2.90;;
30743;SDS011;17486;46.738;7.622;2022-12-29T06:36:57;3.55;;;2.75;;
30743;SDS011;17486;46.738;7.622;2022-12-29T06:39:22;3.70;;;2.92;;
30743;SDS011;17486;46.738;7.622;2022-12-29T06:41:48;3.50;;;2.60;;
30743;SDS011;17486;46.738;7.622;2022-12-29T06:44:17;2.67;;;2.47;;
30743;SDS011;17486;46.738;7.622;2022-12-29T06:46:42;4.53;;;2.97;;
30743;SDS011;17486;46.738;7.622;2022-12-29T06:49:07;3.45;;;3.03;;
30743;SDS011;17486;46.738;7.622;2022-12-29T06:51:33;3.35;;;2.67;;
30743;SDS011;17486;46.738;7.622;2022-12-29T06:53:58;3.80;;;2.90;;
30743;SDS011;17486;46.738;7.622;2022-12-29T06:56:24;4.38;;;2.70;;
30743;SDS011;17486;46.738;7.622;2022-12-29T06:58:49;3.00;;;2.50;;
30743;SDS011;17486;46.738;7.622;2022-12-29T07:01:14;5.88;;;2.47;;
30743;SDS011;17486;46.738;7.622;2022-12-29T07:03:41;3.60;;;2.50;;
30743;SDS011;17486;46.738;7.622;2022-12-29T07:06:07;3.88;;;2.60;;
30743;SDS011;17486;46.738;7.622;2022-12-29T07:08:33;4.38;;;2.60;;
30743;SDS011;17486;46.738;7.622;2022-12-29T07:10:58;4.60;;;2.53;;
30743;SDS011;17486;46.738;7.622;2022-12-29T07:13:24;3.65;;;2.42;;
30743;SDS011;17486;46.738;7.622;2022-12-29T07:15:49;3.85;;;2.63;;
30743;SDS011;17486;46.738;7.622;2022-12-29T07:18:14;4.90;;;2.95;;
30743;SDS011;17486;46.738;7.622;2022-12-29T07:20:40;5.25;;;3.28;;
30743;SDS011;17486;46.738;7.622;2022-12-29T07:23:05;5.15;;;3.17;;
30743;SDS011;17486;46.738;7.622;2022-12-29T07:25:30;3.63;;;2.47;;
30743;SDS011;17486;46.738;7.622;2022-12-29T07:27:56;4.88;;;2.92;;
30743;SDS011;17486;46.738;7.622;2022-12-29T07:30:21;3.72;;;2.42;;
30743;SDS011;17486;46.738;7.622;2022-12-29T07:32:47;5.15;;;2.72;;
30743;SDS011;17486;46.738;7.622;2022-12-29T07:35:12;5.55;;;2.72;;
30743;SDS011;17486;46.738;7.622;2022-12-29T07:37:37;5.00;;;2.85;;
30743;SDS011;17486;46.738;7.622;2022-12-29T07:40:03;5.03;;;2.60;;
30743;SDS011;17486;46.738;7.622;2022-12-29T07:42:30;4.18;;;2.75;;
30743;SDS011;17486;46.738;7.622;2022-12-29T07:44:56;3.33;;;2.67;;
30743;SDS011;17486;46.738;7.622;2022-12-29T07:47:21;4.18;;;2.85;;
30743;SDS011;17486;46.738;7.622;2022-12-29T07:49:46;3.35;;;2.63;;
30743;SDS011;17486;46.738;7.622;2022-12-29T07:52:12;3.60;;;2.63;;
30743;SDS011;17486;46.738;7.622;2022-12-29T07:54:37;3.28;;;2.40;;
30743;SDS011;17486;46.738;7.622;2022-12-29T07:57:03;4.07;;;2.58;;
30743;SDS011;17486;46.738;7.622;2022-12-29T07:59:29;4.13;;;2.75;;
30743;SDS011;17486;46.738;7.622;2022-12-29T08:01:55;3.88;;;2.35;;
30743;SDS011;17486;46.738;7.622;2022-12-29T08:04:20;3.97;;;2.55;;
30743;SDS011;17486;46.738;7.622;2022-12-29T08:06:46;4.18;;;2.75;;
30743;SDS011;17486;46.738;7.622;2022-12-29T08:09:12;6.90;;;3.40;;
30743;SDS011;17486;46.738;7.622;2022-12-29T08:11:37;6.03;;;3.10;;
30743;SDS011;17486;46.738;7.622;2022-12-29T08:14:03;4.35;;;2.75;;
30743;SDS011;17486;46.738;7.622;2022-12-29T08:16:29;5.30;;;2.88;;
30743;SDS011;17486;46.738;7.622;2022-12-29T08:18:54;5.65;;;3.17;;
30743;SDS011;17486;46.738;7.622;2022-12-29T08:21:19;4.45;;;2.63;;
30743;SDS011;17486;46.738;7.622;2022-12-29T08:23:45;4.35;;;2.92;;
30743;SDS011;17486;46.738;7.622;2022-12-29T08:26:10;3.88;;;2.85;;
30743;SDS011;17486;46.738;7.622;2022-12-29T08:28:36;3.92;;;2.85;;
30743;SDS011;17486;46.738;7.622;2022-12-29T08:31:02;4.05;;;2.83;;
30743;SDS011;17486;46.738;7.622;2022-12-29T08:33:28;4.88;;;3.10;;
30743;SDS011;17486;46.738;7.622;2022-12-29T08:36:01;5.03;;;3.47;;
30743;SDS011;17486;46.738;7.622;2022-12-29T08:38:28;5.80;;;3.70;;
30743;SDS011;17486;46.738;7.622;2022-12-29T08:40:55;6.05;;;2.88;;
30743;SDS011;17486;46.738;7.622;2022-12-29T08:43:21;4.03;;;2.88;;
30743;SDS011;17486;46.738;7.622;2022-12-29T08:45:47;5.57;;;2.97;;
30743;SDS011;17486;46.738;7.622;2022-12-29T08:48:12;5.97;;;3.13;;
30743;SDS011;17486;46.738;7.622;2022-12-29T08:50:38;4.60;;;3.05;;
30743;SDS011;17486;46.738;7.622;2022-12-29T08:53:03;5.05;;;2.92;;
30743;SDS011;17486;46.738;7.622;2022-12-29T08:55:28;4.07;;;2.97;;
30743;SDS011;17486;46.738;7.622;2022-12-29T08:57:54;5.20;;;2.92;;
30743;SDS011;17486;46.738;7.622;2022-12-29T09:00:19;5.30;;;2.72;;
30743;SDS011;17486;46.738;7.622;2022-12-29T09:02:45;5.90;;;3.15;;
30743;SDS011;17486;46.738;7.622;2022-12-29T09:05:11;3.45;;;2.30;;
30743;SDS011;17486;46.738;7.622;2022-12-29T09:07:36;2.50;;;2.03;;
30743;SDS011;17486;46.738;7.622;2022-12-29T09:10:02;1.88;;;1.67;;
30743;SDS011;17486;46.738;7.622;2022-12-29T09:12:28;1.38;;;1.27;;
30743;SDS011;17486;46.738;7.622;2022-12-29T09:14:54;170.13;;;116.22;;
30743;SDS011;17486;46.738;7.622;2022-12-29T09:17:19;120.68;;;79.35;;
30743;SDS011;17486;46.738;7.622;2022-12-29T09:20:04;106.18;;;64.95;;
30743;SDS011;17486;46.738;7.622;2022-12-29T09:22:29;76.93;;;43.80;;
30743;SDS011;17486;46.738;7.622;2022-12-29T09:24:55;24.40;;;15.32;;
30743;SDS011;17486;46.738;7.622;2022-12-29T09:27:20;12.13;;;8.45;;
30743;SDS011;17486;46.738;7.622;2022-12-29T09:29:45;64.70;;;43.20;;
30743;SDS011;17486;46.738;7.622;2022-12-29T09:32:11;162.18;;;112.70;;
30743;SDS011;17486;46.738;7.622;2022-12-29T09:34:36;149.88;;;97.88;;
30743;SDS011;17486;46.738;7.622;2022-12-29T09:37:02;230.45;;;149.25;;
30743;SDS011;17486;46.738;7.622;2022-12-29T09:39:27;135.45;;;86.40;;
30743;SDS011;17486;46.738;7.622;2022-12-29T09:47:15;458.50;;;285.10;;
30743;SDS011;17486;46.738;7.622;2022-12-29T09:49:44;209.68;;;120.22;;
30743;SDS011;17486;46.738;7.622;2022-12-29T09:52:32;46.90;;;24.50;;
30743;SDS011;17486;46.738;7.622;2022-12-29T09:55:04;15.70;;;9.93;;
30743;SDS011;17486;46.738;7.622;2022-12-29T09:57:46;16.48;;;7.85;;
30743;SDS011;17486;46.738;7.622;2022-12-29T10:00:18;9.35;;;5.75;;
30743;SDS011;17486;46.738;7.622;2022-12-29T10:02:49;7.20;;;4.78;;
30743;SDS011;17486;46.738;7.622;2022-12-29T10:10:38;2.35;;;1.13;;
30743;SDS011;17486;46.738;7.622;2022-12-29T10:21:13;2.13;;;1.30;;
30743;SDS011;17486;46.738;7.622;2022-12-29T10:23:40;1.50;;;1.40;;
30743;SDS011;17486;46.738;7.622;2022-12-29T10:26:11;2.63;;;1.75;;
30743;SDS011;17486;46.738;7.622;2022-12-29T10:31:32;1.63;;;1.40;;
30743;SDS011;17486;46.738;7.622;2022-12-29T10:34:03;4.65;;;1.90;;
30743;SDS011;17486;46.738;7.622;2022-12-29T10:36:43;112.60;;;73.82;;
30743;SDS011;17486;46.738;7.622;2022-12-29T10:39:21;98.85;;;65.13;;
30743;SDS011;17486;46.738;7.622;2022-12-29T10:44:29;46.05;;;30.13;;
30743;SDS011;17486;46.738;7.622;2022-12-29T10:46:59;16.38;;;10.15;;
30743;SDS011;17486;46.738;7.622;2022-12-29T10:49:29;5.18;;;3.88;;
30743;SDS011;17486;46.738;7.622;2022-12-29T10:51:58;4.50;;;2.50;;
30743;SDS011;17486;46.738;7.622;2022-12-29T10:59:56;1.83;;;1.13;;
30743;SDS011;17486;46.738;7.622;2022-12-29T11:08:17;1.75;;;1.48;;
30743;SDS011;17486;46.738;7.622;2022-12-29T11:10:45;2.30;;;1.63;;
30743;SDS011;17486;46.738;7.622;2022-12-29T11:13:12;4.07;;;1.98;;
30743;SDS011;17486;46.738;7.622;2022-12-29T11:15:40;3.05;;;2.28;;
30743;SDS011;17486;46.738;7.622;2022-12-29T11:18:30;238.07;;;179.77;;
30743;SDS011;17486;46.738;7.622;2022-12-29T11:21:50;304.02;;;217.05;;
30743;SDS011;17486;46.738;7.622;2022-12-29T11:26:30;74.47;;;50.83;;
30743;SDS011;17486;46.738;7.622;2022-12-29T11:31:39;11.27;;;7.38;;
30743;SDS011;17486;46.738;7.622;2022-12-29T11:34:06;4.45;;;3.53;;
30743;SDS011;17486;46.738;7.622;2022-12-29T11:36:33;4.15;;;2.85;;
30743;SDS011;17486;46.738;7.622;2022-12-29T11:38:59;229.95;;;144.25;;
30743;SDS011;17486;46.738;7.622;2022-12-29T11:41:26;208.63;;;131.82;;
30743;SDS011;17486;46.738;7.622;2022-12-29T11:43:54;147.68;;;96.07;;
30743;SDS011;17486;46.738;7.622;2022-12-29T11:46:24;213.65;;;130.82;;
30743;SDS011;17486;46.738;7.622;2022-12-29T11:48:52;77.22;;;48.15;;
30743;SDS011;17486;46.738;7.622;2022-12-29T11:51:39;17.63;;;11.23;;
30743;SDS011;17486;46.738;7.622;2022-12-29T11:54:09;5.85;;;3.53;;
30743;SDS011;17486;46.738;7.622;2022-12-29T11:56:42;3.85;;;2.85;;
30743;SDS011;17486;46.738;7.622;2022-12-29T11:59:23;2.75;;;2.30;;
30743;SDS011;17486;46.738;7.622;2022-12-29T12:01:52;2.58;;;1.90;;
30743;SDS011;17486;46.738;7.622;2022-12-29T12:04:18;3.63;;;2.10;;
30743;SDS011;17486;46.738;7.622;2022-12-29T12:06:48;3.50;;;1.73;;
30743;SDS011;17486;46.738;7.622;2022-12-29T12:09:49;1.50;;;1.38;;
30743;SDS011;17486;46.738;7.622;2022-12-29T12:12:29;1.10;;;1.00;;
30743;SDS011;17486;46.738;7.622;2022-12-29T12:14:59;1.15;;;1.08;;
30743;SDS011;17486;46.738;7.622;2022-12-29T12:17:29;1.40;;;1.30;;
30743;SDS011;17486;46.738;7.622;2022-12-29T12:23:04;2.28;;;1.02;;
30743;SDS011;17486;46.738;7.622;2022-12-29T12:25:35;2.00;;;1.33;;
30743;SDS011;17486;46.738;7.622;2022-12-29T12:28:24;3.13;;;1.40;;
30743;SDS011;17486;46.738;7.622;2022-12-29T12:31:16;1.73;;;1.50;;
30743;SDS011;17486;46.738;7.622;2022-12-29T12:33:47;2.63;;;1.40;;
30743;SDS011;17486;46.738;7.622;2022-12-29T12:36:27;3.00;;;1.50;;
30743;SDS011;17486;46.738;7.622;2022-12-29T12:39:12;2.75;;;1.60;;
30743;SDS011;17486;46.738;7.622;2022-12-29T12:42:11;1.95;;;1.40;;
30743;SDS011;17486;46.738;7.622;2022-12-29T12:50:26;2.80;;;1.58;;
30743;SDS011;17486;46.738;7.622;2022-12-29T12:53:08;2.53;;;2.22;;
30743;SDS011;17486;46.738;7.622;2022-12-29T12:55:56;5.03;;;2.88;;
30743;SDS011;17486;46.738;7.622;2022-12-29T12:58:44;3.20;;;2.47;;
30743;SDS011;17486;46.738;7.622;2022-12-29T13:04:13;5.00;;;2.53;;
30743;SDS011;17486;46.738;7.622;2022-12-29T13:07:06;268.80;;;176.73;;
30743;SDS011;17486;46.738;7.622;2022-12-29T13:17:36;8.05;;;4.88;;
30743;SDS011;17486;46.738;7.622;2022-12-29T13:22:47;2.33;;;2.05;;
30743;SDS011;17486;46.738;7.622;2022-12-29T13:38:53;3.25;;;2.00;;
30743;SDS011;17486;46.738;7.622;2022-12-29T13:41:30;5.43;;;2.00;;
30743;SDS011;17486;46.738;7.622;2022-12-29T13:44:00;4.75;;;2.22;;
30743;SDS011;17486;46.738;7.622;2022-12-29T13:46:48;3.42;;;1.90;;
30743;SDS011;17486;46.738;7.622;2022-12-29T13:49:16;5.70;;;1.92;;
30743;SDS011;17486;46.738;7.622;2022-12-29T13:51:50;2.53;;;1.75;;
30743;SDS011;17486;46.738;7.622;2022-12-29T13:59:51;3.85;;;2.13;;
30743;SDS011;17486;46.738;7.622;2022-12-29T14:02:27;3.00;;;1.98;;
30743;SDS011;17486;46.738;7.622;2022-12-29T14:07:47;2.33;;;1.95;;
30743;SDS011;17486;46.738;7.622;2022-12-29T14:11:05;5.63;;;2.65;;
30743;SDS011;17486;46.738;7.622;2022-12-29T14:13:20;3.78;;;2.20;;
30743;SDS011;17486;46.738;7.622;2022-12-29T14:15:52;3.83;;;2.15;;
30743;SDS011;17486;46.738;7.622;2022-12-29T14:18:23;5.47;;;1.90;;
30743;SDS011;17486;46.738;7.622;2022-12-29T14:20:52;2.05;;;1.80;;
30743;SDS011;17486;46.738;7.622;2022-12-29T14:28:34;4.80;;;2.20;;
30743;SDS011;17486;46.738;7.622;2022-12-29T14:31:05;3.35;;;2.00;;
30743;SDS011;17486;46.738;7.622;2022-12-29T14:36:41;3.97;;;2.50;;
30743;SDS011;17486;46.738;7.622;2022-12-29T14:39:35;3.10;;;2.50;;
30743;SDS011;17486;46.738;7.622;2022-12-29T14:42:21;5.53;;;3.13;;
30743;SDS011;17486;46.738;7.622;2022-12-29T14:45:06;5.72;;;2.60;;
30743;SDS011;17486;46.738;7.622;2022-12-29T14:47:50;5.70;;;2.33;;
30743;SDS011;17486;46.738;7.622;2022-12-29T14:50:39;4.22;;;2.53;;
30743;SDS011;17486;46.738;7.622;2022-12-29T14:53:10;5.18;;;2.22;;
30743;SDS011;17486;46.738;7.622;2022-12-29T14:56:11;4.28;;;2.40;;
30743;SDS011;17486;46.738;7.622;2022-12-29T14:58:52;5.82;;;2.90;;
30743;SDS011;17486;46.738;7.622;2022-12-29T15:02:11;4.18;;;2.20;;
30743;SDS011;17486;46.738;7.622;2022-12-29T15:04:15;5.00;;;2.13;;
30743;SDS011;17486;46.738;7.622;2022-12-29T15:06:44;5.90;;;2.45;;
30743;SDS011;17486;46.738;7.622;2022-12-29T15:09:23;7.55;;;2.45;;
30743;SDS011;17486;46.738;7.622;2022-12-29T15:11:57;9.00;;;2.30;;
30743;SDS011;17486;46.738;7.622;2022-12-29T15:14:32;2.30;;;1.80;;
30743;SDS011;17486;46.738;7.622;2022-12-29T15:17:01;4.30;;;2.60;;
30743;SDS011;17486;46.738;7.622;2022-12-29T15:19:27;3.92;;;2.30;;
30743;SDS011;17486;46.738;7.622;2022-12-29T15:21:54;2.83;;;2.15;;
30743;SDS011;17486;46.738;7.622;2022-12-29T15:24:20;2.78;;;2.03;;
30743;SDS011;17486;46.738;7.622;2022-12-29T15:26:46;204.70;;;129.63;;
30743;SDS011;17486;46.738;7.622;2022-12-29T15:32:27;157.30;;;104.22;;
30743;SDS011;17486;46.738;7.622;2022-12-29T15:34:55;50.63;;;34.10;;
30743;SDS011;17486;46.738;7.622;2022-12-29T15:37:26;20.23;;;14.18;;
30743;SDS011;17486;46.738;7.622;2022-12-29T15:39:54;9.95;;;7.32;;
30743;SDS011;17486;46.738;7.622;2022-12-29T15:44:48;4.07;;;3.35;;
30743;SDS011;17486;46.738;7.622;2022-12-29T15:47:15;4.72;;;3.20;;
30743;SDS011;17486;46.738;7.622;2022-12-29T15:49:44;4.90;;;3.38;;
30743;SDS011;17486;46.738;7.622;2022-12-29T15:52:15;4.60;;;3.00;;
30743;SDS011;17486;46.738;7.622;2022-12-29T15:54:44;3.67;;;2.72;;
30743;SDS011;17486;46.738;7.622;2022-12-29T15:57:36;4.15;;;2.85;;
30743;SDS011;17486;46.738;7.622;2022-12-29T16:00:02;3.97;;;2.60;;
30743;SDS011;17486;46.738;7.622;2022-12-29T16:02:29;5.20;;;2.53;;
30743;SDS011;17486;46.738;7.622;2022-12-29T16:04:55;3.92;;;2.95;;
30743;SDS011;17486;46.738;7.622;2022-12-29T16:07:25;4.60;;;2.92;;
30743;SDS011;17486;46.738;7.622;2022-12-29T16:09:56;3.08;;;2.63;;
30743;SDS011;17486;46.738;7.622;2022-12-29T16:12:34;3.28;;;2.25;;
30743;SDS011;17486;46.738;7.622;2022-12-29T16:15:03;3.83;;;2.60;;
30743;SDS011;17486;46.738;7.622;2022-12-29T16:17:48;5.80;;;2.33;;
30743;SDS011;17486;46.738;7.622;2022-12-29T16:20:37;4.47;;;2.47;;
30743;SDS011;17486;46.738;7.622;2022-12-29T16:23:08;3.38;;;3.08;;
30743;SDS011;17486;46.738;7.622;2022-12-29T16:25:43;3.92;;;3.17;;
30743;SDS011;17486;46.738;7.622;2022-12-29T16:31:16;3.50;;;3.00;;
30743;SDS011;17486;46.738;7.622;2022-12-29T16:36:22;5.45;;;2.83;;
30743;SDS011;17486;46.738;7.622;2022-12-29T16:41:40;4.03;;;2.88;;
30743;SDS011;17486;46.738;7.622;2022-12-29T16:44:12;4.35;;;2.83;;
30743;SDS011;17486;46.738;7.622;2022-12-29T16:49:26;3.53;;;2.65;;
30743;SDS011;17486;46.738;7.622;2022-12-29T16:51:52;3.45;;;2.33;;
30743;SDS011;17486;46.738;7.622;2022-12-29T16:54:23;3.80;;;2.70;;
30743;SDS011;17486;46.738;7.622;2022-12-29T16:56:53;3.05;;;2.38;;
30743;SDS011;17486;46.738;7.622;2022-12-29T17:02:07;4.90;;;2.17;;
30743;SDS011;17486;46.738;7.622;2022-12-29T17:04:38;4.30;;;2.97;;
30743;SDS011;17486;46.738;7.622;2022-12-29T17:07:07;5.68;;;3.40;;
30743;SDS011;17486;46.738;7.622;2022-12-29T17:09:43;6.75;;;3.88;;
30743;SDS011;17486;46.738;7.622;2022-12-29T17:12:10;4.45;;;3.25;;
30743;SDS011;17486;46.738;7.622;2022-12-29T17:14:48;5.95;;;3.28;;
30743;SDS011;17486;46.738;7.622;2022-12-29T17:17:34;5.28;;;3.08;;
30743;SDS011;17486;46.738;7.622;2022-12-29T17:20:22;3.47;;;2.67;;
30743;SDS011;17486;46.738;7.622;2022-12-29T17:22:49;3.63;;;2.50;;
30743;SDS011;17486;46.738;7.622;2022-12-29T17:25:19;3.75;;;2.83;;
30743;SDS011;17486;46.738;7.622;2022-12-29T17:30:20;3.40;;;2.75;;
30743;SDS011;17486;46.738;7.622;2022-12-29T17:32:51;4.60;;;3.97;;
30743;SDS011;17486;46.738;7.622;2022-12-29T17:35:22;5.68;;;4.22;;
30743;SDS011;17486;46.738;7.622;2022-12-29T17:37:48;3.80;;;3.40;;
30743;SDS011;17486;46.738;7.622;2022-12-29T17:40:21;3.97;;;3.28;;
30743;SDS011;17486;46.738;7.622;2022-12-29T17:42:49;5.00;;;3.33;;